sensor_id;sensor_type;location;lat;lon;timestamp;P1;durP1;ratioP1;P2;durP2;ratioP2
77705;SDS011;66874;45.274;5.880;2023-06-19T00:01:14;5.32;;;4.43;;
77705;SDS011;66874;45.274;5.880;2023-06-19T00:03:40;6.38;;;5.50;;
77705;SDS011;66874;45.274;5.880;2023-06-19T00:06:05;6.80;;;4.90;;
77705;SDS011;66874;45.274;5.880;2023-06-19T00:08:31;8.43;;;5.25;;
77705;SDS011;66874;45.274;5.880;2023-06-19T00:10:57;6.60;;;5.35;;
77705;SDS011;66874;45.274;5.880;2023-06-19T00:13:22;8.23;;;5.60;;
77705;SDS011;66874;45.274;5.880;2023-06-19T00:15:47;7.45;;;5.55;;
77705;SDS011;66874;45.274;5.880;2023-06-19T00:18:13;7.47;;;5.80;;
77705;SDS011;66874;45.274;5.880;2023-06-19T00:20:38;7.28;;;4.95;;
77705;SDS011;66874;45.274;5.880;2023-06-19T00:23:04;6.55;;;5.15;;
77705;SDS011;66874;45.274;5.880;2023-06-19T00:25:31;6.57;;;4.95;;
77705;SDS011;66874;45.274;5.880;2023-06-19T00:27:56;6.32;;;4.80;;
77705;SDS011;66874;45.274;5.880;2023-06-19T00:30:22;6.10;;;5.18;;
77705;SDS011;66874;45.274;5.880;2023-06-19T00:32:47;9.63;;;5.07;;
77705;SDS011;66874;45.274;5.880;2023-06-19T00:35:15;7.25;;;4.78;;
77705;SDS011;66874;45.274;5.880;2023-06-19T00:37:41;7.88;;;5.10;;
77705;SDS011;66874;45.274;5.880;2023-06-19T00:40:16;6.18;;;5.22;;
77705;SDS011;66874;45.274;5.880;2023-06-19T00:42:46;7.40;;;4.85;;
77705;SDS011;66874;45.274;5.880;2023-06-19T00:45:12;5.57;;;4.75;;
77705;SDS011;66874;45.274;5.880;2023-06-19T00:47:37;7.82;;;4.80;;
77705;SDS011;66874;45.274;5.880;2023-06-19T00:50:03;8.02;;;5.30;;
77705;SDS011;66874;45.274;5.880;2023-06-19T00:52:29;6.85;;;5.20;;
77705;SDS011;66874;45.274;5.880;2023-06-19T00:54:55;6.47;;;5.18;;
77705;SDS011;66874;45.274;5.880;2023-06-19T00:57:20;6.90;;;5.18;;
77705;SDS011;66874;45.274;5.880;2023-06-19T00:59:46;6.35;;;5.03;;
77705;SDS011;66874;45.274;5.880;2023-06-19T01:02:12;5.45;;;4.72;;
77705;SDS011;66874;45.274;5.880;2023-06-19T01:04:38;6.00;;;5.28;;
77705;SDS011;66874;45.274;5.880;2023-06-19T01:07:05;6.78;;;5.07;;
77705;SDS011;66874;45.274;5.880;2023-06-19T01:09:41;7.85;;;5.25;;
77705;SDS011;66874;45.274;5.880;2023-06-19T01:12:31;8.15;;;5.47;;
77705;SDS011;66874;45.274;5.880;2023-06-19T01:15:02;7.60;;;5.80;;
77705;SDS011;66874;45.274;5.880;2023-06-19T01:17:30;14.18;;;6.35;;
77705;SDS011;66874;45.274;5.880;2023-06-19T01:19:56;7.83;;;5.43;;
77705;SDS011;66874;45.274;5.880;2023-06-19T01:22:26;8.77;;;5.43;;
77705;SDS011;66874;45.274;5.880;2023-06-19T01:24:55;8.65;;;5.40;;
77705;SDS011;66874;45.274;5.880;2023-06-19T01:27:21;6.68;;;5.32;;
77705;SDS011;66874;45.274;5.880;2023-06-19T01:29:48;7.80;;;5.78;;
77705;SDS011;66874;45.274;5.880;2023-06-19T01:32:15;6.35;;;5.38;;
77705;SDS011;66874;45.274;5.880;2023-06-19T01:34:45;7.85;;;4.70;;
77705;SDS011;66874;45.274;5.880;2023-06-19T01:37:11;7.00;;;4.65;;
77705;SDS011;66874;45.274;5.880;2023-06-19T01:39:37;6.85;;;5.32;;
77705;SDS011;66874;45.274;5.880;2023-06-19T01:42:05;6.65;;;4.88;;
77705;SDS011;66874;45.274;5.880;2023-06-19T01:44:31;5.47;;;4.72;;
77705;SDS011;66874;45.274;5.880;2023-06-19T01:46:57;7.45;;;5.72;;
77705;SDS011;66874;45.274;5.880;2023-06-19T01:49:22;8.25;;;5.40;;
77705;SDS011;66874;45.274;5.880;2023-06-19T01:51:48;8.82;;;6.07;;
77705;SDS011;66874;45.274;5.880;2023-06-19T01:54:13;11.70;;;5.75;;
77705;SDS011;66874;45.274;5.880;2023-06-19T01:56:38;6.68;;;5.15;;
77705;SDS011;66874;45.274;5.880;2023-06-19T01:59:04;7.28;;;5.30;;
77705;SDS011;66874;45.274;5.880;2023-06-19T02:01:29;7.07;;;5.57;;
77705;SDS011;66874;45.274;5.880;2023-06-19T02:03:54;6.35;;;5.75;;
77705;SDS011;66874;45.274;5.880;2023-06-19T02:06:20;7.82;;;5.72;;
77705;SDS011;66874;45.274;5.880;2023-06-19T02:08:46;6.13;;;5.53;;
77705;SDS011;66874;45.274;5.880;2023-06-19T02:11:13;7.95;;;5.53;;
77705;SDS011;66874;45.274;5.880;2023-06-19T02:13:38;6.88;;;5.35;;
77705;SDS011;66874;45.274;5.880;2023-06-19T02:16:04;8.45;;;5.13;;
77705;SDS011;66874;45.274;5.880;2023-06-19T02:18:29;6.55;;;5.28;;
77705;SDS011;66874;45.274;5.880;2023-06-19T02:20:54;10.07;;;5.65;;
77705;SDS011;66874;45.274;5.880;2023-06-19T02:23:20;8.73;;;6.07;;
77705;SDS011;66874;45.274;5.880;2023-06-19T02:25:45;7.38;;;5.63;;
77705;SDS011;66874;45.274;5.880;2023-06-19T02:28:11;8.63;;;5.95;;
77705;SDS011;66874;45.274;5.880;2023-06-19T02:30:36;6.97;;;5.82;;
77705;SDS011;66874;45.274;5.880;2023-06-19T02:33:01;7.88;;;5.80;;
77705;SDS011;66874;45.274;5.880;2023-06-19T02:35:27;7.45;;;5.57;;
77705;SDS011;66874;45.274;5.880;2023-06-19T02:37:52;6.75;;;5.60;;
77705;SDS011;66874;45.274;5.880;2023-06-19T02:40:17;9.00;;;6.00;;
77705;SDS011;66874;45.274;5.880;2023-06-19T02:42:43;7.75;;;5.63;;
77705;SDS011;66874;45.274;5.880;2023-06-19T02:45:08;8.32;;;6.13;;
77705;SDS011;66874;45.274;5.880;2023-06-19T02:47:34;7.60;;;5.40;;
77705;SDS011;66874;45.274;5.880;2023-06-19T02:49:59;7.40;;;6.13;;
77705;SDS011;66874;45.274;5.880;2023-06-19T02:52:26;9.15;;;5.10;;
77705;SDS011;66874;45.274;5.880;2023-06-19T02:54:52;6.30;;;5.63;;
77705;SDS011;66874;45.274;5.880;2023-06-19T02:57:18;9.52;;;6.15;;
77705;SDS011;66874;45.274;5.880;2023-06-19T02:59:43;8.07;;;5.63;;
77705;SDS011;66874;45.274;5.880;2023-06-19T03:02:10;6.30;;;5.20;;
77705;SDS011;66874;45.274;5.880;2023-06-19T03:04:36;8.52;;;5.55;;
77705;SDS011;66874;45.274;5.880;2023-06-19T03:07:01;8.05;;;5.85;;
77705;SDS011;66874;45.274;5.880;2023-06-19T03:09:28;12.45;;;5.80;;
77705;SDS011;66874;45.274;5.880;2023-06-19T03:11:53;9.15;;;5.75;;
77705;SDS011;66874;45.274;5.880;2023-06-19T03:14:19;6.63;;;5.40;;
77705;SDS011;66874;45.274;5.880;2023-06-19T03:16:45;10.23;;;6.15;;
77705;SDS011;66874;45.274;5.880;2023-06-19T03:19:10;10.55;;;5.63;;
77705;SDS011;66874;45.274;5.880;2023-06-19T03:21:35;9.82;;;6.13;;
77705;SDS011;66874;45.274;5.880;2023-06-19T03:24:01;8.57;;;6.15;;
77705;SDS011;66874;45.274;5.880;2023-06-19T03:26:26;7.72;;;5.43;;
77705;SDS011;66874;45.274;5.880;2023-06-19T03:28:52;11.50;;;6.57;;
77705;SDS011;66874;45.274;5.880;2023-06-19T03:31:17;9.27;;;5.85;;
77705;SDS011;66874;45.274;5.880;2023-06-19T03:33:43;10.00;;;6.97;;
77705;SDS011;66874;45.274;5.880;2023-06-19T03:36:08;9.32;;;6.18;;
77705;SDS011;66874;45.274;5.880;2023-06-19T03:38:34;6.15;;;5.55;;
77705;SDS011;66874;45.274;5.880;2023-06-19T03:41:00;9.60;;;6.00;;
77705;SDS011;66874;45.274;5.880;2023-06-19T03:43:25;9.63;;;6.05;;
77705;SDS011;66874;45.274;5.880;2023-06-19T03:45:50;8.90;;;5.88;;
77705;SDS011;66874;45.274;5.880;2023-06-19T03:48:16;8.43;;;6.07;;
77705;SDS011;66874;45.274;5.880;2023-06-19T03:50:43;8.68;;;5.90;;
77705;SDS011;66874;45.274;5.880;2023-06-19T03:53:08;8.48;;;5.88;;
77705;SDS011;66874;45.274;5.880;2023-06-19T03:55:34;8.50;;;5.78;;
77705;SDS011;66874;45.274;5.880;2023-06-19T03:57:59;6.72;;;5.50;;
77705;SDS011;66874;45.274;5.880;2023-06-19T04:00:25;10.55;;;5.85;;
77705;SDS011;66874;45.274;5.880;2023-06-19T04:02:50;7.68;;;5.65;;
77705;SDS011;66874;45.274;5.880;2023-06-19T04:05:16;7.75;;;6.50;;
77705;SDS011;66874;45.274;5.880;2023-06-19T04:07:41;7.80;;;5.72;;
77705;SDS011;66874;45.274;5.880;2023-06-19T04:10:07;7.18;;;5.47;;
77705;SDS011;66874;45.274;5.880;2023-06-19T04:12:33;8.63;;;6.50;;
77705;SDS011;66874;45.274;5.880;2023-06-19T04:14:58;6.53;;;5.78;;
77705;SDS011;66874;45.274;5.880;2023-06-19T04:17:24;7.18;;;5.93;;
77705;SDS011;66874;45.274;5.880;2023-06-19T04:19:49;10.85;;;6.28;;
77705;SDS011;66874;45.274;5.880;2023-06-19T04:22:14;13.93;;;6.35;;
77705;SDS011;66874;45.274;5.880;2023-06-19T04:24:40;9.27;;;5.60;;
77705;SDS011;66874;45.274;5.880;2023-06-19T04:27:05;8.40;;;6.15;;
77705;SDS011;66874;45.274;5.880;2023-06-19T04:31:58;7.18;;;6.00;;
77705;SDS011;66874;45.274;5.880;2023-06-19T04:34:24;9.07;;;6.68;;
77705;SDS011;66874;45.274;5.880;2023-06-19T04:36:50;8.88;;;6.03;;
77705;SDS011;66874;45.274;5.880;2023-06-19T04:39:15;9.77;;;6.28;;
77705;SDS011;66874;45.274;5.880;2023-06-19T04:41:44;9.80;;;6.22;;
77705;SDS011;66874;45.274;5.880;2023-06-19T04:44:09;8.68;;;6.68;;
77705;SDS011;66874;45.274;5.880;2023-06-19T04:46:38;9.75;;;6.32;;
77705;SDS011;66874;45.274;5.880;2023-06-19T04:49:04;11.77;;;6.47;;
77705;SDS011;66874;45.274;5.880;2023-06-19T04:51:32;7.30;;;6.07;;
77705;SDS011;66874;45.274;5.880;2023-06-19T04:54:00;9.15;;;7.07;;
77705;SDS011;66874;45.274;5.880;2023-06-19T04:56:26;10.75;;;6.97;;
77705;SDS011;66874;45.274;5.880;2023-06-19T04:58:52;9.55;;;6.22;;
77705;SDS011;66874;45.274;5.880;2023-06-19T05:01:21;10.07;;;7.07;;
77705;SDS011;66874;45.274;5.880;2023-06-19T05:03:52;10.07;;;6.53;;
77705;SDS011;66874;45.274;5.880;2023-06-19T05:06:18;11.98;;;7.07;;
77705;SDS011;66874;45.274;5.880;2023-06-19T05:08:44;8.70;;;6.85;;
77705;SDS011;66874;45.274;5.880;2023-06-19T05:11:09;9.70;;;7.00;;
77705;SDS011;66874;45.274;5.880;2023-06-19T05:13:35;10.85;;;7.30;;
77705;SDS011;66874;45.274;5.880;2023-06-19T05:16:00;9.63;;;7.50;;
77705;SDS011;66874;45.274;5.880;2023-06-19T05:18:25;10.68;;;6.55;;
77705;SDS011;66874;45.274;5.880;2023-06-19T05:20:50;11.00;;;6.95;;
77705;SDS011;66874;45.274;5.880;2023-06-19T05:23:16;11.00;;;7.28;;
77705;SDS011;66874;45.274;5.880;2023-06-19T05:25:41;10.82;;;6.90;;
77705;SDS011;66874;45.274;5.880;2023-06-19T05:28:08;9.48;;;6.68;;
77705;SDS011;66874;45.274;5.880;2023-06-19T05:30:34;11.55;;;6.85;;
77705;SDS011;66874;45.274;5.880;2023-06-19T05:33:00;9.60;;;6.72;;
77705;SDS011;66874;45.274;5.880;2023-06-19T05:35:25;8.93;;;6.72;;
77705;SDS011;66874;45.274;5.880;2023-06-19T05:37:51;9.20;;;7.47;;
77705;SDS011;66874;45.274;5.880;2023-06-19T05:40:16;8.25;;;6.50;;
77705;SDS011;66874;45.274;5.880;2023-06-19T05:42:42;7.43;;;6.55;;
77705;SDS011;66874;45.274;5.880;2023-06-19T05:45:07;9.32;;;6.80;;
77705;SDS011;66874;45.274;5.880;2023-06-19T05:47:33;9.32;;;6.93;;
77705;SDS011;66874;45.274;5.880;2023-06-19T05:49:58;13.18;;;7.65;;
77705;SDS011;66874;45.274;5.880;2023-06-19T05:52:24;13.25;;;7.38;;
77705;SDS011;66874;45.274;5.880;2023-06-19T05:54:50;9.23;;;6.80;;
77705;SDS011;66874;45.274;5.880;2023-06-19T05:57:17;16.52;;;7.18;;
77705;SDS011;66874;45.274;5.880;2023-06-19T05:59:46;8.43;;;6.88;;
77705;SDS011;66874;45.274;5.880;2023-06-19T06:02:12;9.27;;;7.10;;
77705;SDS011;66874;45.274;5.880;2023-06-19T06:04:37;8.82;;;6.93;;
77705;SDS011;66874;45.274;5.880;2023-06-19T06:07:02;8.32;;;6.75;;
77705;SDS011;66874;45.274;5.880;2023-06-19T06:09:28;10.85;;;7.00;;
77705;SDS011;66874;45.274;5.880;2023-06-19T06:11:53;9.15;;;7.30;;
77705;SDS011;66874;45.274;5.880;2023-06-19T06:14:19;11.73;;;7.50;;
77705;SDS011;66874;45.274;5.880;2023-06-19T06:16:44;12.35;;;7.80;;
77705;SDS011;66874;45.274;5.880;2023-06-19T06:19:10;11.27;;;7.45;;
77705;SDS011;66874;45.274;5.880;2023-06-19T06:21:35;10.93;;;8.25;;
77705;SDS011;66874;45.274;5.880;2023-06-19T06:24:01;11.38;;;7.32;;
77705;SDS011;66874;45.274;5.880;2023-06-19T06:26:26;14.43;;;8.32;;
77705;SDS011;66874;45.274;5.880;2023-06-19T06:28:53;12.38;;;8.25;;
77705;SDS011;66874;45.274;5.880;2023-06-19T06:31:18;11.48;;;8.25;;
77705;SDS011;66874;45.274;5.880;2023-06-19T06:33:44;16.77;;;9.00;;
77705;SDS011;66874;45.274;5.880;2023-06-19T06:36:09;18.73;;;8.50;;
77705;SDS011;66874;45.274;5.880;2023-06-19T06:38:34;13.77;;;8.05;;
77705;SDS011;66874;45.274;5.880;2023-06-19T06:41:00;10.43;;;7.72;;
77705;SDS011;66874;45.274;5.880;2023-06-19T06:43:25;11.77;;;8.40;;
77705;SDS011;66874;45.274;5.880;2023-06-19T06:45:51;9.38;;;7.47;;
77705;SDS011;66874;45.274;5.880;2023-06-19T06:48:16;10.63;;;7.32;;
77705;SDS011;66874;45.274;5.880;2023-06-19T06:50:42;8.05;;;7.25;;
77705;SDS011;66874;45.274;5.880;2023-06-19T06:53:07;8.88;;;7.28;;
77705;SDS011;66874;45.274;5.880;2023-06-19T06:55:33;11.02;;;7.60;;
77705;SDS011;66874;45.274;5.880;2023-06-19T06:57:58;10.13;;;7.63;;
77705;SDS011;66874;45.274;5.880;2023-06-19T07:00:24;10.40;;;8.13;;
77705;SDS011;66874;45.274;5.880;2023-06-19T07:02:49;11.77;;;8.15;;
77705;SDS011;66874;45.274;5.880;2023-06-19T07:05:15;8.93;;;7.90;;
77705;SDS011;66874;45.274;5.880;2023-06-19T07:07:41;10.95;;;7.80;;
77705;SDS011;66874;45.274;5.880;2023-06-19T07:10:07;9.77;;;7.47;;
77705;SDS011;66874;45.274;5.880;2023-06-19T07:12:33;11.20;;;7.75;;
77705;SDS011;66874;45.274;5.880;2023-06-19T07:14:59;8.95;;;7.63;;
77705;SDS011;66874;45.274;5.880;2023-06-19T07:17:24;10.32;;;8.00;;
77705;SDS011;66874;45.274;5.880;2023-06-19T07:19:49;12.68;;;8.30;;
77705;SDS011;66874;45.274;5.880;2023-06-19T07:22:15;16.00;;;8.35;;
77705;SDS011;66874;45.274;5.880;2023-06-19T07:24:40;20.70;;;8.27;;
77705;SDS011;66874;45.274;5.880;2023-06-19T07:27:06;10.50;;;9.40;;
77705;SDS011;66874;45.274;5.880;2023-06-19T07:29:31;13.20;;;9.20;;
77705;SDS011;66874;45.274;5.880;2023-06-19T07:31:57;12.45;;;8.32;;
77705;SDS011;66874;45.274;5.880;2023-06-19T07:34:23;13.88;;;8.40;;
77705;SDS011;66874;45.274;5.880;2023-06-19T07:36:50;17.05;;;9.40;;
77705;SDS011;66874;45.274;5.880;2023-06-19T07:39:15;13.07;;;8.13;;
77705;SDS011;66874;45.274;5.880;2023-06-19T07:41:41;14.38;;;8.73;;
77705;SDS011;66874;45.274;5.880;2023-06-19T07:44:06;15.20;;;9.70;;
77705;SDS011;66874;45.274;5.880;2023-06-19T07:46:31;13.15;;;9.20;;
77705;SDS011;66874;45.274;5.880;2023-06-19T07:48:57;12.73;;;9.15;;
77705;SDS011;66874;45.274;5.880;2023-06-19T07:51:22;14.43;;;8.25;;
77705;SDS011;66874;45.274;5.880;2023-06-19T07:53:48;12.25;;;8.30;;
77705;SDS011;66874;45.274;5.880;2023-06-19T07:56:13;16.00;;;9.20;;
77705;SDS011;66874;45.274;5.880;2023-06-19T07:58:39;13.77;;;8.52;;
77705;SDS011;66874;45.274;5.880;2023-06-19T08:01:04;14.48;;;9.93;;
77705;SDS011;66874;45.274;5.880;2023-06-19T08:03:29;13.93;;;10.05;;
77705;SDS011;66874;45.274;5.880;2023-06-19T08:05:55;22.42;;;10.48;;
77705;SDS011;66874;45.274;5.880;2023-06-19T08:08:21;18.48;;;10.52;;
77705;SDS011;66874;45.274;5.880;2023-06-19T08:10:46;22.42;;;10.68;;
77705;SDS011;66874;45.274;5.880;2023-06-19T08:13:12;20.67;;;10.40;;
77705;SDS011;66874;45.274;5.880;2023-06-19T08:15:37;19.08;;;10.60;;
77705;SDS011;66874;45.274;5.880;2023-06-19T08:18:03;22.80;;;10.70;;
77705;SDS011;66874;45.274;5.880;2023-06-19T08:20:28;17.58;;;10.02;;
77705;SDS011;66874;45.274;5.880;2023-06-19T08:22:54;23.30;;;10.20;;
77705;SDS011;66874;45.274;5.880;2023-06-19T08:25:19;25.90;;;10.38;;
77705;SDS011;66874;45.274;5.880;2023-06-19T08:27:44;19.45;;;9.05;;
77705;SDS011;66874;45.274;5.880;2023-06-19T08:30:10;19.05;;;10.77;;
77705;SDS011;66874;45.274;5.880;2023-06-19T08:32:36;23.98;;;10.35;;
77705;SDS011;66874;45.274;5.880;2023-06-19T08:35:02;22.30;;;10.05;;
77705;SDS011;66874;45.274;5.880;2023-06-19T08:37:28;20.38;;;11.23;;
77705;SDS011;66874;45.274;5.880;2023-06-19T08:39:54;19.67;;;10.45;;
77705;SDS011;66874;45.274;5.880;2023-06-19T08:42:21;17.65;;;10.38;;
77705;SDS011;66874;45.274;5.880;2023-06-19T08:44:47;17.08;;;10.00;;
77705;SDS011;66874;45.274;5.880;2023-06-19T08:47:13;16.42;;;10.13;;
77705;SDS011;66874;45.274;5.880;2023-06-19T08:49:38;17.35;;;9.70;;
77705;SDS011;66874;45.274;5.880;2023-06-19T08:52:04;14.02;;;9.52;;
77705;SDS011;66874;45.274;5.880;2023-06-19T08:54:30;16.70;;;9.15;;
77705;SDS011;66874;45.274;5.880;2023-06-19T08:56:59;14.63;;;9.57;;
77705;SDS011;66874;45.274;5.880;2023-06-19T08:59:28;13.27;;;9.45;;
77705;SDS011;66874;45.274;5.880;2023-06-19T09:01:56;12.05;;;8.40;;
77705;SDS011;66874;45.274;5.880;2023-06-19T09:04:26;13.57;;;9.35;;
77705;SDS011;66874;45.274;5.880;2023-06-19T09:06:53;12.48;;;9.00;;
77705;SDS011;66874;45.274;5.880;2023-06-19T09:11:56;17.10;;;10.18;;
77705;SDS011;66874;45.274;5.880;2023-06-19T09:17:13;15.48;;;10.05;;
77705;SDS011;66874;45.274;5.880;2023-06-19T09:19:48;18.15;;;10.23;;
77705;SDS011;66874;45.274;5.880;2023-06-19T09:22:15;15.38;;;10.35;;
77705;SDS011;66874;45.274;5.880;2023-06-19T09:24:43;17.10;;;9.75;;
77705;SDS011;66874;45.274;5.880;2023-06-19T09:27:09;14.13;;;9.65;;
77705;SDS011;66874;45.274;5.880;2023-06-19T09:29:39;14.40;;;9.82;;
77705;SDS011;66874;45.274;5.880;2023-06-19T09:34:41;21.25;;;10.27;;
77705;SDS011;66874;45.274;5.880;2023-06-19T09:37:06;17.20;;;10.13;;
77705;SDS011;66874;45.274;5.880;2023-06-19T09:39:33;19.58;;;9.98;;
77705;SDS011;66874;45.274;5.880;2023-06-19T09:42:00;15.25;;;9.88;;
77705;SDS011;66874;45.274;5.880;2023-06-19T09:44:29;15.63;;;10.43;;
77705;SDS011;66874;45.274;5.880;2023-06-19T09:46:56;18.08;;;10.50;;
77705;SDS011;66874;45.274;5.880;2023-06-19T09:49:25;16.75;;;10.55;;
77705;SDS011;66874;45.274;5.880;2023-06-19T09:51:56;16.27;;;10.38;;
77705;SDS011;66874;45.274;5.880;2023-06-19T09:54:23;17.15;;;10.48;;
77705;SDS011;66874;45.274;5.880;2023-06-19T09:56:49;18.42;;;10.00;;
77705;SDS011;66874;45.274;5.880;2023-06-19T09:59:16;19.10;;;11.18;;
77705;SDS011;66874;45.274;5.880;2023-06-19T10:01:42;18.38;;;10.60;;
77705;SDS011;66874;45.274;5.880;2023-06-19T10:04:08;15.05;;;9.73;;
77705;SDS011;66874;45.274;5.880;2023-06-19T10:06:43;16.98;;;10.30;;
77705;SDS011;66874;45.274;5.880;2023-06-19T10:09:10;17.02;;;9.38;;
77705;SDS011;66874;45.274;5.880;2023-06-19T10:11:47;14.65;;;9.73;;
77705;SDS011;66874;45.274;5.880;2023-06-19T10:14:18;12.00;;;9.13;;
77705;SDS011;66874;45.274;5.880;2023-06-19T10:16:45;13.90;;;8.63;;
77705;SDS011;66874;45.274;5.880;2023-06-19T10:19:14;19.70;;;9.40;;
77705;SDS011;66874;45.274;5.880;2023-06-19T10:21:44;17.05;;;9.55;;
77705;SDS011;66874;45.274;5.880;2023-06-19T10:24:18;13.23;;;9.63;;
77705;SDS011;66874;45.274;5.880;2023-06-19T10:26:55;13.02;;;9.52;;
77705;SDS011;66874;45.274;5.880;2023-06-19T10:29:24;16.55;;;9.75;;
77705;SDS011;66874;45.274;5.880;2023-06-19T10:31:52;31.27;;;12.80;;
77705;SDS011;66874;45.274;5.880;2023-06-19T10:34:18;17.85;;;9.60;;
77705;SDS011;66874;45.274;5.880;2023-06-19T10:36:44;15.93;;;8.55;;
77705;SDS011;66874;45.274;5.880;2023-06-19T10:39:09;10.93;;;8.23;;
77705;SDS011;66874;45.274;5.880;2023-06-19T10:41:35;14.70;;;8.70;;
77705;SDS011;66874;45.274;5.880;2023-06-19T10:44:05;13.65;;;8.88;;
77705;SDS011;66874;45.274;5.880;2023-06-19T10:46:37;12.80;;;8.95;;
77705;SDS011;66874;45.274;5.880;2023-06-19T10:49:03;12.05;;;8.80;;
77705;SDS011;66874;45.274;5.880;2023-06-19T10:51:31;11.20;;;9.88;;
77705;SDS011;66874;45.274;5.880;2023-06-19T10:53:59;11.68;;;9.10;;
77705;SDS011;66874;45.274;5.880;2023-06-19T10:56:24;13.60;;;9.45;;
77705;SDS011;66874;45.274;5.880;2023-06-19T10:59:00;12.40;;;8.98;;
77705;SDS011;66874;45.274;5.880;2023-06-19T11:01:32;10.82;;;8.98;;
77705;SDS011;66874;45.274;5.880;2023-06-19T11:04:08;12.43;;;9.20;;
77705;SDS011;66874;45.274;5.880;2023-06-19T11:06:34;14.77;;;9.52;;
77705;SDS011;66874;45.274;5.880;2023-06-19T11:09:12;16.58;;;8.95;;
77705;SDS011;66874;45.274;5.880;2023-06-19T11:11:45;10.52;;;8.30;;
77705;SDS011;66874;45.274;5.880;2023-06-19T11:14:12;13.93;;;8.88;;
77705;SDS011;66874;45.274;5.880;2023-06-19T11:16:40;12.82;;;9.25;;
77705;SDS011;66874;45.274;5.880;2023-06-19T11:19:08;14.90;;;9.23;;
77705;SDS011;66874;45.274;5.880;2023-06-19T11:21:35;9.55;;;8.05;;
77705;SDS011;66874;45.274;5.880;2023-06-19T11:24:05;14.18;;;8.27;;
77705;SDS011;66874;45.274;5.880;2023-06-19T11:26:39;13.80;;;9.60;;
77705;SDS011;66874;45.274;5.880;2023-06-19T11:29:15;15.48;;;10.38;;
77705;SDS011;66874;45.274;5.880;2023-06-19T11:31:51;10.10;;;8.82;;
77705;SDS011;66874;45.274;5.880;2023-06-19T11:34:19;12.85;;;8.68;;
77705;SDS011;66874;45.274;5.880;2023-06-19T11:36:45;13.38;;;8.07;;
77705;SDS011;66874;45.274;5.880;2023-06-19T11:39:12;16.02;;;8.70;;
77705;SDS011;66874;45.274;5.880;2023-06-19T11:41:38;13.75;;;8.43;;
77705;SDS011;66874;45.274;5.880;2023-06-19T11:44:05;12.55;;;8.32;;
77705;SDS011;66874;45.274;5.880;2023-06-19T11:46:32;9.82;;;8.30;;
77705;SDS011;66874;45.274;5.880;2023-06-19T11:51:41;10.57;;;7.00;;
77705;SDS011;66874;45.274;5.880;2023-06-19T11:54:08;9.52;;;7.85;;
77705;SDS011;66874;45.274;5.880;2023-06-19T11:56:35;9.32;;;8.38;;
77705;SDS011;66874;45.274;5.880;2023-06-19T11:59:01;12.00;;;8.23;;
77705;SDS011;66874;45.274;5.880;2023-06-19T12:01:28;9.40;;;7.55;;
77705;SDS011;66874;45.274;5.880;2023-06-19T12:03:53;11.67;;;7.80;;
77705;SDS011;66874;45.274;5.880;2023-06-19T12:06:19;10.33;;;8.30;;
77705;SDS011;66874;45.274;5.880;2023-06-19T12:08:45;8.77;;;7.88;;
77705;SDS011;66874;45.274;5.880;2023-06-19T12:11:10;12.63;;;7.67;;
77705;SDS011;66874;45.274;5.880;2023-06-19T12:13:38;13.77;;;8.30;;
77705;SDS011;66874;45.274;5.880;2023-06-19T12:16:05;12.23;;;6.88;;
77705;SDS011;66874;45.274;5.880;2023-06-19T12:18:30;11.50;;;8.07;;
77705;SDS011;66874;45.274;5.880;2023-06-19T12:20:55;12.43;;;7.23;;
77705;SDS011;66874;45.274;5.880;2023-06-19T12:23:21;8.23;;;6.43;;
77705;SDS011;66874;45.274;5.880;2023-06-19T12:25:46;14.77;;;8.73;;
77705;SDS011;66874;45.274;5.880;2023-06-19T12:28:12;13.37;;;7.73;;
77705;SDS011;66874;45.274;5.880;2023-06-19T12:30:41;12.77;;;7.13;;
77705;SDS011;66874;45.274;5.880;2023-06-19T12:33:07;10.17;;;7.73;;
77705;SDS011;66874;45.274;5.880;2023-06-19T12:35:32;10.07;;;7.27;;
77705;SDS011;66874;45.274;5.880;2023-06-19T12:37:57;12.90;;;7.90;;
77705;SDS011;66874;45.274;5.880;2023-06-19T12:40:23;10.60;;;6.33;;
77705;SDS011;66874;45.274;5.880;2023-06-19T12:42:48;8.10;;;7.30;;
77705;SDS011;66874;45.274;5.880;2023-06-19T12:45:15;9.85;;;7.28;;
77705;SDS011;66874;45.274;5.880;2023-06-19T12:47:41;15.00;;;7.07;;
77705;SDS011;66874;45.274;5.880;2023-06-19T12:50:06;10.67;;;6.93;;
77705;SDS011;66874;45.274;5.880;2023-06-19T12:52:32;11.00;;;6.83;;
77705;SDS011;66874;45.274;5.880;2023-06-19T12:54:57;7.47;;;6.67;;
77705;SDS011;66874;45.274;5.880;2023-06-19T12:57:26;8.70;;;6.97;;
77705;SDS011;66874;45.274;5.880;2023-06-19T12:59:51;8.50;;;6.90;;
77705;SDS011;66874;45.274;5.880;2023-06-19T13:02:17;8.93;;;7.50;;
77705;SDS011;66874;45.274;5.880;2023-06-19T13:04:42;9.20;;;7.13;;
77705;SDS011;66874;45.274;5.880;2023-06-19T13:07:07;10.70;;;7.83;;
77705;SDS011;66874;45.274;5.880;2023-06-19T13:09:33;12.63;;;7.30;;
77705;SDS011;66874;45.274;5.880;2023-06-19T13:12:00;10.52;;;8.20;;
77705;SDS011;66874;45.274;5.880;2023-06-19T13:14:26;12.57;;;7.68;;
77705;SDS011;66874;45.274;5.880;2023-06-19T13:16:52;9.83;;;6.70;;
77705;SDS011;66874;45.274;5.880;2023-06-19T13:19:17;7.90;;;7.17;;
77705;SDS011;66874;45.274;5.880;2023-06-19T13:21:43;10.07;;;7.73;;
77705;SDS011;66874;45.274;5.880;2023-06-19T13:24:08;9.67;;;7.73;;
77705;SDS011;66874;45.274;5.880;2023-06-19T13:26:34;9.60;;;7.20;;
77705;SDS011;66874;45.274;5.880;2023-06-19T13:28:59;9.03;;;8.13;;
77705;SDS011;66874;45.274;5.880;2023-06-19T13:31:25;8.90;;;7.45;;
77705;SDS011;66874;45.274;5.880;2023-06-19T13:33:51;8.13;;;7.30;;
77705;SDS011;66874;45.274;5.880;2023-06-19T13:36:16;8.40;;;7.60;;
77705;SDS011;66874;45.274;5.880;2023-06-19T13:38:43;8.60;;;6.18;;
77705;SDS011;66874;45.274;5.880;2023-06-19T13:41:09;7.77;;;6.97;;
77705;SDS011;66874;45.274;5.880;2023-06-19T13:43:34;7.80;;;7.10;;
77705;SDS011;66874;45.274;5.880;2023-06-19T13:45:59;8.40;;;6.67;;
77705;SDS011;66874;45.274;5.880;2023-06-19T13:48:28;8.30;;;7.38;;
77705;SDS011;66874;45.274;5.880;2023-06-19T13:50:53;10.70;;;7.63;;
77705;SDS011;66874;45.274;5.880;2023-06-19T13:53:19;11.77;;;7.77;;
77705;SDS011;66874;45.274;5.880;2023-06-19T13:55:46;8.25;;;7.43;;
77705;SDS011;66874;45.274;5.880;2023-06-19T13:58:11;11.07;;;8.10;;
77705;SDS011;66874;45.274;5.880;2023-06-19T14:00:38;8.40;;;7.47;;
77705;SDS011;66874;45.274;5.880;2023-06-19T14:03:03;9.82;;;6.78;;
77705;SDS011;66874;45.274;5.880;2023-06-19T14:05:31;8.02;;;7.32;;
77705;SDS011;66874;45.274;5.880;2023-06-19T14:07:57;8.65;;;6.60;;
77705;SDS011;66874;45.274;5.880;2023-06-19T14:10:23;7.53;;;6.85;;
77705;SDS011;66874;45.274;5.880;2023-06-19T14:12:49;7.47;;;6.60;;
77705;SDS011;66874;45.274;5.880;2023-06-19T14:15:14;9.23;;;7.03;;
77705;SDS011;66874;45.274;5.880;2023-06-19T14:17:39;8.90;;;6.53;;
77705;SDS011;66874;45.274;5.880;2023-06-19T14:20:06;9.70;;;7.18;;
77705;SDS011;66874;45.274;5.880;2023-06-19T14:22:33;6.97;;;6.28;;
77705;SDS011;66874;45.274;5.880;2023-06-19T14:24:59;7.18;;;6.47;;
77705;SDS011;66874;45.274;5.880;2023-06-19T14:27:26;7.88;;;6.68;;
77705;SDS011;66874;45.274;5.880;2023-06-19T14:29:53;7.30;;;6.70;;
77705;SDS011;66874;45.274;5.880;2023-06-19T14:32:20;8.07;;;7.30;;
77705;SDS011;66874;45.274;5.880;2023-06-19T14:34:46;7.65;;;6.13;;
77705;SDS011;66874;45.274;5.880;2023-06-19T14:37:11;9.83;;;6.93;;
77705;SDS011;66874;45.274;5.880;2023-06-19T14:39:36;8.57;;;6.47;;
77705;SDS011;66874;45.274;5.880;2023-06-19T14:42:02;6.53;;;5.93;;
77705;SDS011;66874;45.274;5.880;2023-06-19T14:44:27;7.63;;;6.90;;
77705;SDS011;66874;45.274;5.880;2023-06-19T14:46:53;8.47;;;7.67;;
77705;SDS011;66874;45.274;5.880;2023-06-19T14:49:18;7.57;;;6.47;;